createdAt,value
2018-02-07T00:00:18.259Z,57.83
2018-02-07T00:01:28.371Z,57.83
2018-02-07T00:02:38.541Z,57.73
2018-02-07T00:03:48.671Z,58.02
2018-02-07T00:04:58.789Z,58.21
2018-02-07T00:06:09.188Z,58.4
2018-02-07T00:07:19.302Z,58.3
2018-02-07T00:08:29.440Z,58.21
2018-02-07T00:09:39.314Z,58.02
2018-02-07T00:10:49.519Z,58.11
2018-02-07T00:11:59.714Z,57.83
2018-02-07T00:13:09.922Z,57.92
2018-02-07T00:14:20.199Z,57.83
2018-02-07T00:15:30.340Z,57.64
2018-02-07T00:16:40.475Z,57.83
2018-02-07T00:17:50.617Z,57.54
2018-02-07T00:19:00.740Z,57.83
2018-02-07T00:20:10.878Z,57.92
2018-02-07T00:21:21.018Z,57.64
2018-02-07T00:22:31.150Z,57.83
2018-02-07T00:23:41.264Z,57.54
2018-02-07T00:24:51.391Z,57.64
2018-02-07T00:26:01.008Z,57.64
2018-02-07T00:27:10.879Z,57.54
2018-02-07T00:28:21.012Z,57.54
2018-02-07T00:29:31.218Z,57.64
2018-02-07T00:30:41.365Z,57.83
2018-02-07T00:31:51.597Z,57.64
2018-02-07T00:33:01.464Z,57.64
2018-02-07T00:34:11.584Z,57.45
2018-02-07T00:35:21.741Z,57.73
2018-02-07T00:36:31.858Z,57.73
2018-02-07T00:37:41.995Z,57.92
2018-02-07T00:38:52.123Z,57.83
2018-02-07T00:40:02.092Z,57.83
2018-02-07T00:41:12.236Z,57.73
2018-02-07T00:42:22.365Z,57.64
2018-02-07T00:43:32.487Z,57.54
2018-02-07T00:44:43.341Z,57.64
2018-02-07T00:45:53.483Z,57.83
2018-02-07T00:47:03.452Z,57.73
2018-02-07T00:48:13.653Z,57.92
2018-02-07T00:49:23.470Z,57.92
2018-02-07T00:50:33.577Z,58.02
2018-02-07T00:51:43.435Z,57.73
2018-02-07T00:52:53.696Z,57.73
2018-02-07T00:54:04.816Z,57.83
2018-02-07T00:55:14.709Z,57.92
2018-02-07T00:56:24.859Z,57.83
2018-02-07T00:57:34.970Z,57.73
2018-02-07T00:58:45.138Z,57.64
2018-02-07T00:59:55.251Z,57.73
2018-02-07T01:01:06.392Z,57.64
2018-02-07T01:02:16.531Z,57.64
2018-02-07T01:03:26.300Z,58.3
2018-02-07T01:04:36.446Z,58.21
2018-02-07T01:05:46.566Z,58.59
2018-02-07T01:06:56.741Z,58.21
2018-02-07T01:08:07.846Z,58.4
2018-02-07T01:09:17.976Z,58.4
2018-02-07T01:10:28.105Z,58.3
2018-02-07T01:11:38.221Z,58.3
2018-02-07T01:12:48.386Z,58.3
2018-02-07T01:13:58.501Z,58.3
2018-02-07T01:15:08.695Z,58.11
2018-02-07T01:16:18.863Z,58.21
2018-02-07T01:17:28.763Z,57.83
2018-02-07T01:18:38.905Z,57.83
2018-02-07T01:19:48.767Z,58.3
2018-02-07T01:20:58.913Z,58.21
2018-02-07T01:22:09.074Z,58.3
2018-02-07T01:23:19.295Z,58.4
2018-02-07T01:24:29.506Z,57.92
2018-02-07T01:25:39.395Z,57.92
2018-02-07T01:26:49.535Z,57.64
2018-02-07T01:27:59.630Z,57.73
2018-02-07T01:29:09.581Z,57.45
2018-02-07T01:30:19.761Z,57.92
2018-02-07T01:31:29.976Z,57.45
2018-02-07T01:32:40.150Z,57.17
2018-02-07T01:33:50.319Z,57.35
2018-02-07T01:35:00.470Z,57.26
2018-02-07T01:36:10.598Z,57.73
2018-02-07T01:37:20.703Z,57.64
2018-02-07T01:38:30.458Z,57.54
2018-02-07T01:39:40.561Z,57.64
2018-02-07T01:40:50.694Z,57.92
2018-02-07T01:42:00.848Z,57.64
2018-02-07T01:43:11.076Z,57.73
2018-02-07T01:44:21.247Z,57.83
2018-02-07T01:45:31.358Z,57.64
2018-02-07T01:46:41.469Z,57.45
2018-02-07T01:47:51.586Z,57.64
2018-02-07T01:49:01.198Z,57.73
2018-02-07T01:50:11.354Z,58.02
2018-02-07T01:51:21.259Z,57.83
2018-02-07T01:52:31.409Z,57.54
2018-02-07T01:53:42.516Z,57.64
2018-02-07T01:54:52.630Z,57.54
2018-02-07T01:56:02.763Z,57.83
2018-02-07T01:57:12.874Z,57.83
2018-02-07T01:58:23.034Z,57.73
2018-02-07T01:59:32.922Z,57.92
2018-02-07T02:00:42.763Z,57.45
2018-02-07T02:01:52.516Z,57.83
2018-02-07T02:03:02.618Z,57.83
2018-02-07T02:04:12.763Z,57.73
2018-02-07T02:05:22.914Z,57.83
2018-02-07T02:06:33.183Z,57.64
2018-02-07T02:07:44.265Z,57.64
2018-02-07T02:08:54.377Z,57.83
2018-02-07T02:10:04.511Z,57.73
2018-02-07T02:11:14.666Z,58.02
2018-02-07T02:12:24.752Z,57.64
2018-02-07T02:13:34.915Z,57.83
2018-02-07T02:14:45.068Z,57.83
2018-02-07T02:15:55.224Z,57.83
2018-02-07T02:17:05.360Z,57.83
2018-02-07T02:18:15.495Z,57.73
2018-02-07T02:19:25.700Z,57.83
2018-02-07T02:20:35.537Z,57.73
2018-02-07T02:21:45.646Z,57.83
2018-02-07T02:22:55.907Z,57.83
2018-02-07T02:24:05.799Z,57.54
2018-02-07T02:25:15.917Z,57.83
2018-02-07T02:26:25.760Z,58.21
2018-02-07T02:27:35.897Z,58.3
2018-02-07T02:28:45.758Z,58.3
2018-02-07T02:29:56.598Z,57.83
2018-02-07T02:31:06.728Z,58.28
2018-02-07T02:32:16.938Z,58.68
2018-02-07T02:33:26.944Z,58.28
2018-02-07T02:34:37.064Z,58.49
2018-02-07T02:35:47.176Z,58.4
2018-02-07T02:36:57.295Z,58.49
2018-02-07T02:38:07.421Z,58.4
2018-02-07T02:39:17.528Z,58.49
2018-02-07T02:40:27.638Z,58.4
2018-02-07T02:41:37.759Z,58.68
2018-02-07T02:42:47.903Z,58.49
2018-02-07T02:43:57.933Z,58.49
2018-02-07T02:45:08.073Z,58.49
2018-02-07T02:46:18.355Z,58.49
2018-02-07T02:47:27.884Z,58.78
2018-02-07T02:48:37.802Z,58.78
2018-02-07T02:49:47.994Z,58.49
2018-02-07T02:50:58.245Z,58.21
2018-02-07T02:52:08.424Z,58.78
2018-02-07T02:53:18.587Z,58.49
2018-02-07T02:54:28.755Z,58.68
2018-02-07T02:55:38.989Z,58.49
2018-02-07T02:56:48.889Z,58.3
2018-02-07T02:57:58.728Z,58.49
2018-02-07T02:59:08.394Z,58.87
2018-02-07T03:00:18.528Z,58.68
2018-02-07T03:01:28.669Z,58.87
2018-02-07T03:02:38.949Z,58.78
2018-02-07T03:03:49.077Z,58.68
2018-02-07T03:04:59.182Z,58.78
2018-02-07T03:06:09.055Z,58.68
2018-02-07T03:07:19.368Z,58.78
2018-02-07T03:08:28.968Z,58.78
2018-02-07T03:09:39.078Z,58.87
2018-02-07T03:10:49.211Z,58.87
2018-02-07T03:11:59.305Z,58.49
2018-02-07T03:13:09.530Z,58.59
2018-02-07T03:14:19.405Z,58.97
2018-02-07T03:15:29.518Z,58.78
2018-02-07T03:16:38.997Z,58.87
2018-02-07T03:17:48.926Z,58.78
2018-02-07T03:18:59.036Z,58.78
2018-02-07T03:20:09.153Z,58.59
2018-02-07T03:21:20.291Z,59.06
2018-02-07T03:22:30.398Z,59.34
2018-02-07T03:23:40.260Z,59.34
2018-02-07T03:24:50.353Z,58.97
2018-02-07T03:26:00.458Z,59.06
2018-02-07T03:27:10.642Z,59.16
2018-02-07T03:28:20.855Z,59.34
2018-02-07T03:29:31.029Z,59.12
2018-02-07T03:30:41.136Z,59.06
2018-02-07T03:31:51.263Z,59.16
2018-02-07T03:33:01.167Z,59.34
2018-02-07T03:34:11.280Z,59.16
2018-02-07T03:35:21.393Z,59.25
2018-02-07T03:36:31.532Z,59.31
2018-02-07T03:37:41.656Z,59.44
2018-02-07T03:38:51.782Z,59.31
2018-02-07T03:40:01.883Z,59.44
2018-02-07T03:41:12.094Z,59.34
2018-02-07T03:42:23.243Z,59.34
2018-02-07T03:43:33.356Z,59.34
2018-02-07T03:44:43.564Z,59.44
2018-02-07T03:45:53.338Z,59.44
2018-02-07T03:47:03.471Z,59.25
2018-02-07T03:48:13.644Z,59.53
2018-02-07T03:49:23.519Z,59.06
2018-02-07T03:50:33.694Z,58.87
2018-02-07T03:51:43.571Z,58.78
2018-02-07T03:52:53.679Z,58.78
2018-02-07T03:54:03.790Z,58.68
2018-02-07T03:55:13.686Z,58.78
2018-02-07T03:56:23.872Z,58.59
2018-02-07T03:57:34.054Z,58.78
2018-02-07T03:58:44.204Z,58.59
2018-02-07T03:59:54.365Z,58.59
2018-02-07T04:01:05.233Z,59.25
2018-02-07T04:02:15.339Z,59.34
2018-02-07T04:03:25.497Z,59.44
2018-02-07T04:04:35.597Z,59.34
2018-02-07T04:05:45.753Z,59.44
2018-02-07T04:06:55.854Z,58.97
2018-02-07T04:08:06.094Z,59.53
2018-02-07T04:09:16.313Z,59.34
2018-02-07T04:10:26.092Z,59.25
2018-02-07T04:11:36.207Z,59.16
2018-02-07T04:12:46.433Z,59.06
2018-02-07T04:13:56.550Z,59.06
2018-02-07T04:15:06.706Z,59.25
2018-02-07T04:16:16.799Z,59.06
2018-02-07T04:17:26.909Z,59.25
2018-02-07T04:18:37.025Z,59.25
2018-02-07T04:19:47.214Z,59.34
2018-02-07T04:20:57.319Z,59.63
2018-02-07T04:22:07.424Z,59.53
2018-02-07T04:23:17.178Z,59.63
2018-02-07T04:24:27.028Z,59.34
2018-02-07T04:25:37.132Z,59.34
2018-02-07T04:26:48.247Z,59.44
2018-02-07T04:27:58.401Z,59.34
2018-02-07T04:29:08.671Z,59.53
2018-02-07T04:30:18.799Z,59.44
2018-02-07T04:31:29.153Z,59.34
2018-02-07T04:32:39.259Z,59.53
2018-02-07T04:33:49.477Z,59.81
2018-02-07T04:34:59.597Z,59.53
2018-02-07T04:36:09.849Z,59.53
2018-02-07T04:37:19.980Z,59.81
2018-02-07T04:38:30.112Z,59.72
2018-02-07T04:39:40.243Z,59.72
2018-02-07T04:40:50.447Z,59.53
2018-02-07T04:42:00.555Z,59.53
2018-02-07T04:43:10.708Z,59.53
2018-02-07T04:44:20.833Z,59.81
2018-02-07T04:45:30.977Z,60
2018-02-07T04:46:41.088Z,60.1
2018-02-07T04:47:51.099Z,60.19
2018-02-07T04:49:01.272Z,60.45
2018-02-07T04:50:11.118Z,60.45
2018-02-07T04:51:21.266Z,60.74
2018-02-07T04:52:31.441Z,60.55
2018-02-07T04:53:41.600Z,60.77
2018-02-07T04:54:51.492Z,61.02
2018-02-07T04:56:01.657Z,60.93
2018-02-07T04:57:12.751Z,60.93
2018-02-07T04:58:22.907Z,61.21
2018-02-07T04:59:32.999Z,61.11
2018-02-07T05:00:43.105Z,61.4
2018-02-07T05:01:53.257Z,61.68
2018-02-07T05:03:03.370Z,61.05
2018-02-07T05:04:13.529Z,61.58
2018-02-07T05:05:23.670Z,61.3
2018-02-07T05:06:33.516Z,61.4
2018-02-07T05:07:43.621Z,61.68
2018-02-07T05:08:53.753Z,61.71
2018-02-07T05:10:03.853Z,61.4
2018-02-07T05:11:14.122Z,61.96
2018-02-07T05:12:25.340Z,61.71
2018-02-07T05:13:35.531Z,61.71
2018-02-07T05:14:45.403Z,61.8
2018-02-07T05:15:55.539Z,61.8
2018-02-07T05:17:05.648Z,62.15
2018-02-07T05:18:15.740Z,61.87
2018-02-07T05:19:25.897Z,61.68
2018-02-07T05:20:35.999Z,61.77
2018-02-07T05:21:46.190Z,61.68
2018-02-07T05:22:56.370Z,62.15
2018-02-07T05:24:06.589Z,61.96
2018-02-07T05:25:16.775Z,62.63
2018-02-07T05:26:26.904Z,62.63
2018-02-07T05:27:37.157Z,62.63
2018-02-07T05:28:47.375Z,62.44
2018-02-07T05:29:57.618Z,62.53
2018-02-07T05:31:07.763Z,62.44
2018-02-07T05:32:17.863Z,62.15
2018-02-07T05:33:27.964Z,62.15
2018-02-07T05:34:38.211Z,62.34
2018-02-07T05:35:48.322Z,62.44
2018-02-07T05:36:58.449Z,62.15
2018-02-07T05:38:08.642Z,62.25
2018-02-07T05:39:18.795Z,62.44
2018-02-07T05:40:29.126Z,62.66
2018-02-07T05:41:38.950Z,62.63
2018-02-07T05:42:48.825Z,62.25
2018-02-07T05:43:58.929Z,62.25
2018-02-07T05:45:09.064Z,62.53
2018-02-07T05:46:19.303Z,62.66
2018-02-07T05:47:29.523Z,62.56
2018-02-07T05:48:39.723Z,62.85
2018-02-07T05:49:49.829Z,62.72
2018-02-07T05:50:59.963Z,62.44
2018-02-07T05:52:10.066Z,62.53
2018-02-07T05:53:19.916Z,62.53
2018-02-07T05:54:30.045Z,62.44
2018-02-07T05:55:40.158Z,62.53
2018-02-07T05:56:50.285Z,62.34
2018-02-07T05:57:59.885Z,62.63
2018-02-07T05:59:09.985Z,63.01
2018-02-07T06:00:20.114Z,63.29
2018-02-07T06:01:30.250Z,63.04
2018-02-07T06:02:40.364Z,62.75
2018-02-07T06:03:50.483Z,62.56
2018-02-07T06:05:00.597Z,62.56
2018-02-07T06:06:11.728Z,62.56
2018-02-07T06:07:21.923Z,62.66
2018-02-07T06:08:32.068Z,62.47
2018-02-07T06:09:41.925Z,62.56
2018-02-07T06:10:52.028Z,62.47
2018-02-07T06:12:02.162Z,62.47
2018-02-07T06:13:12.292Z,62.44
2018-02-07T06:14:22.172Z,62.63
2018-02-07T06:15:32.392Z,63.1
2018-02-07T06:16:43.346Z,63.2
2018-02-07T06:17:53.542Z,63.29
2018-02-07T06:19:03.654Z,63.1
2018-02-07T06:20:13.822Z,63.1
2018-02-07T06:21:23.581Z,63.48
2018-02-07T06:22:33.793Z,63.48
2018-02-07T06:23:43.990Z,63.48
2018-02-07T06:24:53.843Z,63.48
2018-02-07T06:26:03.977Z,63.57
2018-02-07T06:27:14.138Z,63.67
2018-02-07T06:28:24.258Z,63.48
2018-02-07T06:29:34.384Z,63.39
2018-02-07T06:30:44.518Z,63.67
2018-02-07T06:31:55.607Z,63.67
2018-02-07T06:33:05.789Z,63.51
2018-02-07T06:34:15.944Z,63.51
2018-02-07T06:35:26.109Z,63.51
2018-02-07T06:36:36.217Z,63.51
2018-02-07T06:37:46.334Z,63.42
2018-02-07T06:38:56.466Z,63.32
2018-02-07T06:40:06.565Z,63.13
2018-02-07T06:41:16.445Z,63.32
2018-02-07T06:42:26.585Z,63.32
2018-02-07T06:43:36.835Z,63.42
2018-02-07T06:44:46.977Z,63.98
2018-02-07T06:45:57.153Z,63.51
2018-02-07T06:47:07.387Z,63.51
2018-02-07T06:48:17.530Z,63.32
2018-02-07T06:49:27.727Z,63.23
2018-02-07T06:50:37.628Z,63.32
2018-02-07T06:51:47.482Z,63.6
2018-02-07T06:52:57.342Z,63.51
2018-02-07T06:54:07.468Z,63.23
2018-02-07T06:55:17.316Z,63.42
2018-02-07T06:56:27.190Z,63.7
2018-02-07T06:57:37.297Z,63.51
2018-02-07T06:58:47.201Z,63.42
2018-02-07T06:59:57.358Z,63.32
2018-02-07T07:01:07.469Z,63.51
2018-02-07T07:02:18.568Z,63.42
2018-02-07T07:03:28.684Z,63.13
2018-02-07T07:04:38.853Z,63.23
2018-02-07T07:05:49.095Z,63.7
2018-02-07T07:06:59.270Z,63.42
2018-02-07T07:08:09.410Z,63.6
2018-02-07T07:09:19.617Z,63.32
2018-02-07T07:10:29.984Z,63.13
2018-02-07T07:11:40.198Z,62.94
2018-02-07T07:12:50.408Z,63.6
2018-02-07T07:14:00.622Z,63.23
2018-02-07T07:15:10.890Z,63.04
2018-02-07T07:16:21.977Z,63.04
2018-02-07T07:17:31.888Z,63.13
2018-02-07T07:18:42.012Z,63.23
2018-02-07T07:19:52.182Z,63.13
2018-02-07T07:21:02.283Z,63.51
2018-02-07T07:22:12.388Z,63.6
2018-02-07T07:23:23.494Z,63.51
2018-02-07T07:24:33.617Z,63.6
2018-02-07T07:25:44.031Z,63.32
2018-02-07T07:26:54.140Z,63.7
2018-02-07T07:28:03.998Z,63.42
2018-02-07T07:29:14.113Z,63.42
2018-02-07T07:30:24.247Z,63.6
2018-02-07T07:31:34.404Z,63.7
2018-02-07T07:32:44.270Z,63.6
2018-02-07T07:33:54.472Z,63.6
2018-02-07T07:35:04.642Z,63.42
2018-02-07T07:36:14.797Z,63.6
2018-02-07T07:37:24.669Z,63.6
2018-02-07T07:38:34.791Z,63.32
2018-02-07T07:39:44.946Z,63.32
2018-02-07T07:40:55.091Z,63.51
2018-02-07T07:42:06.190Z,63.42
2018-02-07T07:43:16.186Z,63.98
2018-02-07T07:44:26.447Z,63.79
2018-02-07T07:45:36.773Z,64.07
2018-02-07T07:46:46.892Z,63.7
2018-02-07T07:47:56.753Z,63.89
2018-02-07T07:49:06.884Z,63.79
2018-02-07T07:50:17.107Z,64.36
2018-02-07T07:51:27.311Z,64.36
2018-02-07T07:52:37.162Z,64.36
2018-02-07T07:53:47.274Z,64.26
2018-02-07T07:54:57.439Z,63.98
2018-02-07T07:56:07.602Z,64.64
2018-02-07T07:57:17.808Z,64.45
2018-02-07T07:58:28.097Z,64.26
2018-02-07T07:59:38.245Z,64.74
2018-02-07T08:00:48.540Z,64.93
2018-02-07T08:01:58.680Z,65.12
2018-02-07T08:03:08.815Z,65.21
2018-02-07T08:04:18.952Z,65.31
2018-02-07T08:05:29.111Z,65.12
2018-02-07T08:06:39.204Z,64.55
2018-02-07T08:07:49.379Z,65.02
2018-02-07T08:08:59.589Z,64.74
2018-02-07T08:10:09.750Z,64.55
2018-02-07T08:11:19.978Z,65.12
2018-02-07T08:12:30.187Z,65.21
2018-02-07T08:13:40.354Z,65.12
2018-02-07T08:14:50.469Z,65.21
2018-02-07T08:16:00.616Z,65.12
2018-02-07T08:17:10.726Z,65.31
2018-02-07T08:18:20.598Z,64.83
2018-02-07T08:19:30.713Z,65.31
2018-02-07T08:20:40.864Z,65.02
2018-02-07T08:21:51.042Z,64.64
2018-02-07T08:23:01.182Z,64.83
2018-02-07T08:24:11.356Z,64.74
2018-02-07T08:25:21.470Z,64.74
2018-02-07T08:26:31.600Z,64.64
2018-02-07T08:27:41.711Z,64.74
2018-02-07T08:28:51.901Z,64.64
2018-02-07T08:30:02.169Z,64.55
2018-02-07T08:31:12.339Z,64.64
2018-02-07T08:32:22.600Z,64.74
2018-02-07T08:33:32.546Z,65.02
2018-02-07T08:34:42.652Z,64.55
2018-02-07T08:35:52.775Z,64.83
2018-02-07T08:37:02.911Z,64.83
2018-02-07T08:38:13.127Z,64.93
2018-02-07T08:39:23.387Z,64.64
2018-02-07T08:40:33.600Z,64.83
2018-02-07T08:41:43.846Z,64.83
2018-02-07T08:42:54.023Z,64.93
2018-02-07T08:44:04.273Z,64.55
2018-02-07T08:45:14.474Z,65.31
2018-02-07T08:46:24.219Z,65.21
2018-02-07T08:47:34.134Z,65.21
2018-02-07T08:48:44.261Z,65.12
2018-02-07T08:49:54.434Z,65.12
2018-02-07T08:51:04.548Z,65.31
2018-02-07T08:52:14.670Z,65.12
2018-02-07T08:53:24.778Z,64.55
2018-02-07T08:54:34.916Z,64.64
2018-02-07T08:55:45.049Z,65.02
2018-02-07T08:56:55.203Z,64.83
2018-02-07T08:58:05.410Z,64.83
2018-02-07T08:59:15.654Z,64.55
2018-02-07T09:00:25.904Z,64.83
2018-02-07T09:01:36.190Z,64.93
2018-02-07T09:02:46.313Z,64.93
2018-02-07T09:03:56.700Z,65.25
2018-02-07T09:05:07.563Z,65.15
2018-02-07T09:06:17.699Z,65.12
2018-02-07T09:07:27.569Z,65.25
2018-02-07T09:08:37.694Z,65.15
2018-02-07T09:09:47.866Z,65.25
2018-02-07T09:10:57.620Z,64.68
2018-02-07T09:12:07.772Z,64.77
2018-02-07T09:13:17.566Z,64.87
2018-02-07T09:14:27.717Z,64.68
2018-02-07T09:15:37.842Z,64.49
2018-02-07T09:16:48.043Z,65.15
2018-02-07T09:17:58.207Z,64.96
2018-02-07T09:19:08.057Z,64.96
2018-02-07T09:20:18.174Z,64.87
2018-02-07T09:21:28.416Z,65.06
2018-02-07T09:22:38.533Z,64.96
2018-02-07T09:23:48.420Z,64.87
2018-02-07T09:24:58.702Z,64.68
2018-02-07T09:26:08.586Z,64.3
2018-02-07T09:27:19.686Z,64.58
2018-02-07T09:28:29.555Z,64.77
2018-02-07T09:29:39.687Z,64.77
2018-02-07T09:30:49.805Z,64.39
2018-02-07T09:32:00.047Z,64.3
2018-02-07T09:33:10.265Z,64.68
2018-02-07T09:34:20.416Z,64.77
2018-02-07T09:35:30.707Z,64.87
2018-02-07T09:36:40.571Z,64.77
2018-02-07T09:37:50.815Z,64.77
2018-02-07T09:39:01.061Z,64.96
2018-02-07T09:40:11.184Z,64.87
2018-02-07T09:41:21.292Z,65.06
2018-02-07T09:42:31.424Z,64.77
2018-02-07T09:43:41.612Z,65.34
2018-02-07T09:44:51.969Z,65.34
2018-02-07T09:46:02.169Z,65.25
2018-02-07T09:47:12.368Z,65.15
2018-02-07T09:48:22.232Z,65.15
2018-02-07T09:49:32.109Z,64.87
2018-02-07T09:50:42.232Z,64.87
2018-02-07T09:51:52.426Z,65.25
2018-02-07T09:53:02.564Z,64.77
2018-02-07T09:54:12.688Z,64.87
2018-02-07T09:55:22.808Z,64.77
2018-02-07T09:56:32.786Z,65.06
2018-02-07T09:57:42.940Z,65.06
2018-02-07T09:58:53.217Z,64.68
2018-02-07T10:00:03.396Z,65.34
2018-02-07T10:01:13.598Z,65.34
2018-02-07T10:02:23.436Z,65.25
2018-02-07T10:03:33.286Z,65.34
2018-02-07T10:04:43.427Z,64.87
2018-02-07T10:05:53.466Z,64.58
2018-02-07T10:07:03.700Z,65.15
2018-02-07T10:08:13.898Z,65.15
2018-02-07T10:09:24.020Z,65.25
2018-02-07T10:10:34.165Z,65.34
2018-02-07T10:11:44.333Z,65.06
2018-02-07T10:12:54.267Z,64.96
2018-02-07T10:14:04.421Z,65.06
2018-02-07T10:15:14.567Z,64.87
2018-02-07T10:16:24.687Z,65.34
2018-02-07T10:17:34.804Z,65.15
2018-02-07T10:18:44.695Z,65.25
2018-02-07T10:19:54.842Z,64.77
2018-02-07T10:21:04.953Z,64.96
2018-02-07T10:22:15.100Z,65.06
2018-02-07T10:23:25.207Z,65.06
2018-02-07T10:24:35.325Z,64.77
2018-02-07T10:25:45.442Z,65.06
2018-02-07T10:26:55.196Z,65.15
2018-02-07T10:28:05.331Z,64.68
2018-02-07T10:29:15.535Z,64.39
2018-02-07T10:30:25.760Z,64.3
2018-02-07T10:31:35.988Z,64.39
2018-02-07T10:32:46.180Z,64.39
2018-02-07T10:33:56.049Z,64.39
2018-02-07T10:35:06.180Z,64.58
2018-02-07T10:36:16.417Z,64.77
2018-02-07T10:37:26.652Z,64.49
2018-02-07T10:38:36.849Z,64.58
2018-02-07T10:39:47.064Z,64.39
2018-02-07T10:40:57.249Z,64.49
2018-02-07T10:42:07.106Z,64.58
2018-02-07T10:43:17.217Z,64.3
2018-02-07T10:44:27.356Z,64.39
2018-02-07T10:45:37.639Z,64.49
2018-02-07T10:46:47.798Z,64.58
2018-02-07T10:47:58.079Z,64.49
2018-02-07T10:49:08.300Z,64.49
2018-02-07T10:50:19.366Z,64.58
2018-02-07T10:51:29.500Z,64.68
2018-02-07T10:52:39.618Z,64.68
2018-02-07T10:53:49.434Z,64.39
2018-02-07T10:54:59.295Z,64.68
2018-02-07T10:56:10.145Z,64.2
2018-02-07T10:57:20.385Z,64.77
2018-02-07T10:58:30.639Z,64.01
2018-02-07T10:59:40.507Z,64.49
2018-02-07T11:00:50.634Z,64.01
2018-02-07T11:02:00.761Z,64.77
2018-02-07T11:03:10.621Z,64.49
2018-02-07T11:04:20.781Z,64.49
2018-02-07T11:05:30.996Z,64.58
2018-02-07T11:06:41.242Z,64.49
2018-02-07T11:07:51.471Z,64.3
2018-02-07T11:09:01.618Z,64.3
2018-02-07T11:10:11.775Z,64.39
2018-02-07T11:11:21.986Z,64.58
2018-02-07T11:12:32.280Z,64.3
2018-02-07T11:13:42.561Z,64.58
2018-02-07T11:14:52.735Z,64.77
2018-02-07T11:16:02.999Z,64.77
2018-02-07T11:17:13.162Z,65.06
2018-02-07T11:18:22.998Z,64.87
2018-02-07T11:19:33.102Z,64.77
2018-02-07T11:20:43.268Z,65.06
2018-02-07T11:21:53.078Z,64.77
2018-02-07T11:23:02.977Z,64.77
2018-02-07T11:24:12.746Z,64.77
2018-02-07T11:25:22.725Z,64.87
2018-02-07T11:26:32.957Z,64.68
2018-02-07T11:27:42.642Z,64.87
2018-02-07T11:28:52.806Z,64.58
2018-02-07T11:30:02.959Z,64.58
2018-02-07T11:31:12.884Z,64.68
2018-02-07T11:32:22.740Z,64.39
2018-02-07T11:33:32.776Z,64.58
2018-02-07T11:34:44.306Z,64.58
2018-02-07T11:35:53.916Z,64.68
2018-02-07T11:37:03.615Z,64.58
2018-02-07T11:38:13.260Z,64.39
2018-02-07T11:39:23.385Z,64.39
2018-02-07T11:40:33.280Z,64.39
2018-02-07T11:41:43.487Z,64.77
2018-02-07T11:42:53.670Z,64.77
2018-02-07T11:44:03.570Z,64.77
2018-02-07T11:45:13.695Z,64.77
2018-02-07T11:46:23.816Z,64.01
2018-02-07T11:47:34.015Z,64.23
2018-02-07T11:48:44.280Z,64.42
2018-02-07T11:49:54.576Z,64.33
2018-02-07T11:51:04.440Z,63.95
2018-02-07T11:52:14.567Z,64.04
2018-02-07T11:53:24.693Z,63.95
2018-02-07T11:54:34.847Z,63.76
2018-02-07T11:55:44.719Z,63.85
2018-02-07T11:56:54.589Z,63.95
2018-02-07T11:58:04.708Z,64.04
2018-02-07T11:59:14.848Z,64.04
2018-02-07T12:00:24.977Z,64.14
2018-02-07T12:01:35.098Z,64.04
2018-02-07T12:02:45.127Z,64.04
2018-02-07T12:03:55.368Z,63.48
2018-02-07T12:05:05.248Z,63.39
2018-02-07T12:06:15.357Z,63.57
2018-02-07T12:07:25.670Z,63.57
2018-02-07T12:08:35.540Z,63.39
2018-02-07T12:09:45.689Z,63.48
2018-02-07T12:10:55.851Z,63.2
2018-02-07T12:12:06.047Z,63.39
2018-02-07T12:13:16.199Z,63.29
2018-02-07T12:14:26.098Z,63.04
2018-02-07T12:15:35.976Z,63.13
2018-02-07T12:16:46.282Z,62.28
2018-02-07T12:17:56.478Z,62.18
2018-02-07T12:19:06.618Z,61.61
2018-02-07T12:20:16.848Z,61.24
2018-02-07T12:21:26.967Z,61.61
2018-02-07T12:22:36.918Z,61.08
2018-02-07T12:23:47.182Z,60.98
2018-02-07T12:24:57.057Z,60.6
2018-02-07T12:26:06.918Z,60.22
2018-02-07T12:27:17.037Z,60.03
2018-02-07T12:28:27.263Z,60.13
2018-02-07T12:29:37.421Z,59.75
2018-02-07T12:30:47.546Z,59.84
2018-02-07T12:31:57.672Z,59.46
2018-02-07T12:33:07.855Z,59.4
2018-02-07T12:34:17.759Z,59.11
2018-02-07T12:35:27.944Z,59.11
2018-02-07T12:36:38.088Z,58.73
2018-02-07T12:37:48.320Z,58.73
2018-02-07T12:38:58.501Z,57.88
2018-02-07T12:40:08.901Z,58
2018-02-07T12:41:18.807Z,57.62
2018-02-07T12:42:28.919Z,56.68
2018-02-07T12:43:38.936Z,56.58
2018-02-07T12:44:49.169Z,56.49
2018-02-07T12:45:59.361Z,56.39
2018-02-07T12:47:09.366Z,55.82
2018-02-07T12:48:19.228Z,56.13
2018-02-07T12:49:29.351Z,55.85
2018-02-07T12:50:39.469Z,55.57
2018-02-07T12:51:49.602Z,55.09
2018-02-07T12:52:59.754Z,54.71
2018-02-07T12:54:09.893Z,54.9
2018-02-07T12:55:20.255Z,54.61
2018-02-07T12:56:30.405Z,54.61
2018-02-07T12:57:40.670Z,54.43
2018-02-07T12:58:50.853Z,54.24
2018-02-07T13:00:01.993Z,53.78
2018-02-07T13:01:12.152Z,53.5
2018-02-07T13:02:22.321Z,52.93
2018-02-07T13:03:32.474Z,53.03
2018-02-07T13:04:42.611Z,52.74
2018-02-07T13:05:52.748Z,52.67
2018-02-07T13:07:02.868Z,51.91
2018-02-07T13:08:13.000Z,51.72
2018-02-07T13:09:23.121Z,52.1
2018-02-07T13:10:33.249Z,51.82
2018-02-07T13:11:43.388Z,51.43
2018-02-07T13:12:53.570Z,51.62
2018-02-07T13:14:03.738Z,51.72
2018-02-07T13:15:13.909Z,51.91
2018-02-07T13:16:24.140Z,51.91
2018-02-07T13:17:34.089Z,52.1
2018-02-07T13:18:44.010Z,52.01
2018-02-07T13:19:53.881Z,51.72
2018-02-07T13:21:04.029Z,51.43
2018-02-07T13:22:13.998Z,51.89
2018-02-07T13:23:23.879Z,51.89
2018-02-07T13:24:33.996Z,51.79
2018-02-07T13:25:44.118Z,52.36
2018-02-07T13:26:54.246Z,51.91
2018-02-07T13:28:04.428Z,51.7
2018-02-07T13:29:14.596Z,51.7
2018-02-07T13:30:24.848Z,52.17
2018-02-07T13:31:35.215Z,51.89
2018-02-07T13:32:45.379Z,51.22
2018-02-07T13:33:55.576Z,51.31
2018-02-07T13:35:05.742Z,51.12
2018-02-07T13:36:15.883Z,51.86
2018-02-07T13:37:26.055Z,52.33
2018-02-07T13:38:35.942Z,52.62
2018-02-07T13:39:46.163Z,52.91
2018-02-07T13:40:55.986Z,52.5
2018-02-07T13:42:06.141Z,53.16
2018-02-07T13:43:16.272Z,53.35
2018-02-07T13:44:26.473Z,53.92
2018-02-07T13:45:36.355Z,53.73
2018-02-07T13:46:46.234Z,53.64
2018-02-07T13:47:56.372Z,53.92
2018-02-07T13:49:06.003Z,53.92
2018-02-07T13:50:16.149Z,54.3
2018-02-07T13:51:26.407Z,54.37
2018-02-07T13:52:36.602Z,54.75
2018-02-07T13:53:46.887Z,54.66
2018-02-07T13:54:57.552Z,55.04
2018-02-07T13:56:07.691Z,55.38
2018-02-07T13:57:17.930Z,55.57
2018-02-07T13:58:28.127Z,55.96
2018-02-07T13:59:39.248Z,56.15
2018-02-07T14:00:49.381Z,56.81
2018-02-07T14:01:59.535Z,56.4
2018-02-07T14:03:09.707Z,57.19
2018-02-07T14:04:19.856Z,57.54
2018-02-07T14:05:30.060Z,57.73
2018-02-07T14:06:40.273Z,57.82
2018-02-07T14:07:50.432Z,57.82
2018-02-07T14:09:00.730Z,57.73
2018-02-07T14:10:10.892Z,57.82
2018-02-07T14:11:21.065Z,57.92
2018-02-07T14:12:31.196Z,58.01
2018-02-07T14:13:41.327Z,58.39
2018-02-07T14:14:51.445Z,58.58
2018-02-07T14:16:01.777Z,58.77
2018-02-07T14:17:12.898Z,58.39
2018-02-07T14:18:23.094Z,58.77
2018-02-07T14:19:32.954Z,58.77
2018-02-07T14:20:42.845Z,58.58
2018-02-07T14:21:52.987Z,58.77
2018-02-07T14:23:03.133Z,58.86
2018-02-07T14:24:13.246Z,59.44
2018-02-07T14:25:23.456Z,59.44
2018-02-07T14:26:33.622Z,59.44
2018-02-07T14:27:43.841Z,59.15
2018-02-07T14:28:54.125Z,59.53
2018-02-07T14:30:04.272Z,59.44
2018-02-07T14:31:14.175Z,59.34
2018-02-07T14:32:24.290Z,59.44
2018-02-07T14:33:34.451Z,59.25
2018-02-07T14:34:44.584Z,59.72
2018-02-07T14:35:54.822Z,59.44
2018-02-07T14:37:05.066Z,59.63
2018-02-07T14:38:15.216Z,60
2018-02-07T14:39:25.367Z,59.91
2018-02-07T14:40:35.481Z,59.81
2018-02-07T14:41:45.619Z,59.72
2018-02-07T14:42:55.487Z,59.53
2018-02-07T14:44:05.617Z,59.81
2018-02-07T14:45:15.507Z,59.81
2018-02-07T14:46:25.614Z,60.1
2018-02-07T14:47:35.757Z,60.19
2018-02-07T14:48:45.898Z,60.1
2018-02-07T14:49:56.046Z,60.1
2018-02-07T14:51:06.242Z,60.38
2018-02-07T14:52:16.427Z,60.38
2018-02-07T14:53:26.737Z,60.19
2018-02-07T14:54:36.956Z,60.57
2018-02-07T14:55:47.180Z,60.76
2018-02-07T14:56:57.438Z,60.54
2018-02-07T14:58:07.315Z,60.73
2018-02-07T14:59:17.477Z,60.54
2018-02-07T15:00:27.610Z,60.83
2018-02-07T15:01:37.814Z,60.92
2018-02-07T15:02:47.948Z,60.92
2018-02-07T15:03:58.153Z,61.3
2018-02-07T15:05:08.346Z,61.11
2018-02-07T15:06:18.461Z,61.68